Observations for EAST MIDLANDS, United Kingdom (EGNX)

EGNX 201650Z 28015KT CAVOK 16/10 Q1019  
EGNX 201620Z 29012KT 9999 SCT040 16/11 Q1019
EGNX 201550Z 28015KT 9999 SCT040 17/12 Q1019
EGNX 201520Z 28014KT 9999 BKN040 18/13 Q1018
EGNX 201450Z 29017KT 9999 SCT029 BKN044 18/14 Q1018 
EGNX 201350Z 26021KT 9999 SCT029 BKN044 21/13 Q1017 
EGNX 201320Z 27018KT 9999 SCT028 21/14 Q1017
EGNX 201250Z 26018KT 9999 FEW025 BKN041 21/15 Q1017 
EGNX 201220Z 25018KT 9999 BKN032 21/14 Q1017
EGNX 201150Z 23017KT 9999 SCT024 BKN045 21/14 Q1017 
EGNX 201120Z 23016KT 9999 SCT020 BKN048 20/15 Q1017 
EGNX 201050Z 23016KT 9999 BKN010 BKN048 20/16 Q1017 
EGNX 201020Z 23012KT 9999 BKN010 BKN030 18/17 Q1017 
EGNX 200950Z 23015KT 6000 -SHRA BKN018 18/15 Q1017  
EGNX 200920Z 22017KT 9999 VCSH BKN022 19/15 Q1017   
EGNX 200850Z 22013KT 9999 BKN020 19/15 Q1017
EGNX 200820Z 22015KT 9999 BKN018 19/15 Q1017
EGNX 200750Z 20017KT 9999 BKN018 19/15 Q1017
EGNX 200720Z 21017KT 9999 BKN017 18/15 Q1018
EGNX 200650Z 21020KT 9999 SCT016 18/14 Q1017
EGNX 200620Z 21019KT 9999 FEW016 18/14 Q1017
EGNX 200550Z 21017KT 9999 FEW013 17/14 Q1017
EGNX 200520Z 21013KT 9999 FEW015 17/14 Q1017
EGNX 200450Z 20014KT 9999 FEW015 16/14 Q1017
EGNX 200420Z 21013KT 9999 FEW018 BKN036 17/14 Q1018 
EGNX 200350Z 21012KT 9999 FEW018 BKN030 17/14 Q1018 
EGNX 200320Z 22011KT 9999 BKN023 17/14 Q1018
EGNX 200250Z 22009KT 9999 BKN020 17/14 Q1018
EGNX 200220Z 22011KT 9999 BKN020 17/14 Q1018
EGNX 200150Z 23015KT 9999 BKN022 18/14 Q1018
EGNX 200120Z 24015KT 9999 BKN022 18/14 Q1019
EGNX 200050Z 24014KT 9999 BKN022 18/14 Q1019
EGNX 200020Z 24014KT 9999 BKN023 18/14 Q1019
EGNX 192350Z 23013KT 9999 BKN028 18/15 Q1020
EGNX 192320Z 22010KT 9999 BKN031 18/15 Q1020
EGNX 192250Z 21009KT 9999 BKN032 18/15 Q1020
EGNX 192220Z 23010KT 9999 BKN032 18/15 Q1020
EGNX 192150Z 23008KT 9999 FEW023 BKN039 18/15 Q1020 
EGNX 192120Z 24009KT 9999 SCT025 BKN039 19/15 Q1020 
EGNX 192050Z 23011KT 9999 BKN042 19/15 Q1020
EGNX 192020Z 22009KT 9999 FEW030 BKN042 20/15 Q1020 
EGNX 191950Z 22011KT 9999 FEW027 BKN044 20/15 Q1020 
EGNX 191920Z 23014KT 9999 FEW029 BKN043 21/15 Q1020 
EGNX 191850Z 23012KT 9999 FEW029 BKN045 21/15 Q1020 
EGNX 191820Z 23014KT 9999 FEW029 BKN046 21/16 Q1020 
EGNX 191750Z 23012KT 9999 FEW029 BKN045 22/16 Q1020 
EGNX 191720Z 23013KT 9999 FEW028 BKN043 21/16 Q1020 
EGNX 191650Z 23012KT 9999 SCT028 BKN044 22/16 Q1020 
EGNX 191620Z 22012KT 9999 BKN026 22/16 Q1020